sensor_id;sensor_type;location;lat;lon;timestamp;pressure;altitude;pressure_sealevel;temperature;humidity
13661;BME280;6903;49.480;11.102;2023-08-06T00:00:27;97212.81;;;15.67;100.00
13661;BME280;6903;49.480;11.102;2023-08-06T00:02:53;97214.81;;;15.65;100.00
13661;BME280;6903;49.480;11.102;2023-08-06T00:05:18;97214.13;;;15.63;100.00
13661;BME280;6903;49.480;11.102;2023-08-06T00:07:46;97215.97;;;15.62;100.00
13661;BME280;6903;49.480;11.102;2023-08-06T00:10:11;97207.34;;;15.60;100.00
13661;BME280;6903;49.480;11.102;2023-08-06T00:12:36;97214.66;;;15.58;100.00
13661;BME280;6903;49.480;11.102;2023-08-06T00:15:02;97217.47;;;15.56;100.00
13661;BME280;6903;49.480;11.102;2023-08-06T00:17:27;97213.84;;;15.57;100.00
13661;BME280;6903;49.480;11.102;2023-08-06T00:19:52;97206.84;;;15.56;100.00
13661;BME280;6903;49.480;11.102;2023-08-06T00:22:18;97201.53;;;15.56;100.00
13661;BME280;6903;49.480;11.102;2023-08-06T00:24:43;97209.00;;;15.53;100.00
13661;BME280;6903;49.480;11.102;2023-08-06T00:27:08;97208.22;;;15.52;100.00
13661;BME280;6903;49.480;11.102;2023-08-06T00:29:34;97207.38;;;15.52;100.00
13661;BME280;6903;49.480;11.102;2023-08-06T00:31:59;97194.09;;;15.52;100.00
13661;BME280;6903;49.480;11.102;2023-08-06T00:34:24;97197.75;;;15.51;100.00
13661;BME280;6903;49.480;11.102;2023-08-06T00:36:49;97186.63;;;15.47;100.00
13661;BME280;6903;49.480;11.102;2023-08-06T00:39:15;97179.19;;;15.43;100.00
13661;BME280;6903;49.480;11.102;2023-08-06T00:41:40;97174.84;;;15.42;100.00
13661;BME280;6903;49.480;11.102;2023-08-06T00:44:05;97166.38;;;15.38;100.00
13661;BME280;6903;49.480;11.102;2023-08-06T00:46:32;97153.41;;;15.35;100.00
13661;BME280;6903;49.480;11.102;2023-08-06T00:48:58;97153.94;;;15.31;100.00
13661;BME280;6903;49.480;11.102;2023-08-06T00:51:25;97139.00;;;15.30;100.00
13661;BME280;6903;49.480;11.102;2023-08-06T00:53:52;97141.66;;;15.30;100.00
13661;BME280;6903;49.480;11.102;2023-08-06T00:56:17;97155.13;;;15.28;100.00
13661;BME280;6903;49.480;11.102;2023-08-06T00:58:43;97160.09;;;15.31;100.00
13661;BME280;6903;49.480;11.102;2023-08-06T01:01:09;97166.19;;;15.32;100.00
13661;BME280;6903;49.480;11.102;2023-08-06T01:03:35;97168.84;;;15.32;100.00
13661;BME280;6903;49.480;11.102;2023-08-06T01:06:00;97166.38;;;15.30;100.00
13661;BME280;6903;49.480;11.102;2023-08-06T01:08:48;97163.72;;;15.30;100.00
13661;BME280;6903;49.480;11.102;2023-08-06T01:11:33;97164.91;;;15.28;100.00
13661;BME280;6903;49.480;11.102;2023-08-06T01:14:09;97169.38;;;15.27;100.00
13661;BME280;6903;49.480;11.102;2023-08-06T01:16:38;97176.53;;;15.27;100.00
13661;BME280;6903;49.480;11.102;2023-08-06T01:19:05;97167.72;;;15.26;100.00
13661;BME280;6903;49.480;11.102;2023-08-06T01:21:30;97164.06;;;15.27;100.00
13661;BME280;6903;49.480;11.102;2023-08-06T01:23:55;97166.88;;;15.26;100.00
13661;BME280;6903;49.480;11.102;2023-08-06T01:26:30;97164.41;;;15.24;100.00
13661;BME280;6903;49.480;11.102;2023-08-06T01:31:35;97164.41;;;15.24;100.00
13661;BME280;6903;49.480;11.102;2023-08-06T01:34:03;97159.94;;;15.25;100.00
13661;BME280;6903;49.480;11.102;2023-08-06T01:36:30;97151.31;;;15.23;100.00
13661;BME280;6903;49.480;11.102;2023-08-06T01:38:55;97144.50;;;15.20;100.00
13661;BME280;6903;49.480;11.102;2023-08-06T01:41:22;97139.38;;;15.19;100.00
13661;BME280;6903;49.480;11.102;2023-08-06T01:43:48;97139.50;;;15.17;100.00
13661;BME280;6903;49.480;11.102;2023-08-06T01:46:13;97140.53;;;15.16;100.00
13661;BME280;6903;49.480;11.102;2023-08-06T01:48:38;97131.88;;;15.14;100.00
13661;BME280;6903;49.480;11.102;2023-08-06T01:51:04;97138.22;;;15.13;100.00
13661;BME280;6903;49.480;11.102;2023-08-06T01:53:30;97142.50;;;15.14;100.00
13661;BME280;6903;49.480;11.102;2023-08-06T01:55:57;97130.25;;;15.13;100.00
13661;BME280;6903;49.480;11.102;2023-08-06T01:58:22;97124.09;;;15.13;100.00
13661;BME280;6903;49.480;11.102;2023-08-06T02:00:47;97134.72;;;15.13;100.00
13661;BME280;6903;49.480;11.102;2023-08-06T02:03:13;97133.06;;;15.12;100.00
13661;BME280;6903;49.480;11.102;2023-08-06T02:05:38;97130.41;;;15.12;100.00
13661;BME280;6903;49.480;11.102;2023-08-06T02:08:03;97131.56;;;15.09;100.00
13661;BME280;6903;49.480;11.102;2023-08-06T02:10:28;97128.91;;;15.09;100.00
13661;BME280;6903;49.480;11.102;2023-08-06T02:12:54;97126.25;;;15.09;100.00
13661;BME280;6903;49.480;11.102;2023-08-06T02:15:19;97121.97;;;15.08;100.00
13661;BME280;6903;49.480;11.102;2023-08-06T02:17:44;97121.97;;;15.08;100.00
13661;BME280;6903;49.480;11.102;2023-08-06T02:20:10;97116.81;;;15.07;100.00
13661;BME280;6903;49.480;11.102;2023-08-06T02:22:35;97116.81;;;15.07;100.00
13661;BME280;6903;49.480;11.102;2023-08-06T02:25:00;97106.38;;;15.05;100.00
13661;BME280;6903;49.480;11.102;2023-08-06T02:27:26;97113.50;;;15.05;100.00
13661;BME280;6903;49.480;11.102;2023-08-06T02:29:51;97122.47;;;15.04;100.00
13661;BME280;6903;49.480;11.102;2023-08-06T02:32:17;97119.16;;;15.02;100.00
13661;BME280;6903;49.480;11.102;2023-08-06T02:34:42;97114.53;;;14.96;100.00
13661;BME280;6903;49.480;11.102;2023-08-06T02:37:07;97112.53;;;14.98;100.00
13661;BME280;6903;49.480;11.102;2023-08-06T02:39:33;97110.69;;;14.98;100.00
13661;BME280;6903;49.480;11.102;2023-08-06T02:41:59;97113.03;;;14.93;100.00
13661;BME280;6903;49.480;11.102;2023-08-06T02:44:27;97111.38;;;14.92;100.00
13661;BME280;6903;49.480;11.102;2023-08-06T02:46:53;97098.44;;;14.89;100.00
13661;BME280;6903;49.480;11.102;2023-08-06T02:49:18;97090.47;;;14.89;100.00
13661;BME280;6903;49.480;11.102;2023-08-06T02:51:45;97071.91;;;14.89;100.00
13661;BME280;6903;49.480;11.102;2023-08-06T02:54:10;97074.56;;;14.89;100.00
13661;BME280;6903;49.480;11.102;2023-08-06T02:56:35;97077.88;;;14.91;100.00
13661;BME280;6903;49.480;11.102;2023-08-06T02:59:01;97073.72;;;14.89;100.00
13661;BME280;6903;49.480;11.102;2023-08-06T03:01:26;97086.31;;;14.87;100.00
13661;BME280;6903;49.480;11.102;2023-08-06T03:03:52;97081.34;;;14.84;100.00
13661;BME280;6903;49.480;11.102;2023-08-06T03:06:17;97081.34;;;14.84;100.00
13661;BME280;6903;49.480;11.102;2023-08-06T03:08:42;97077.91;;;14.83;100.00
13661;BME280;6903;49.480;11.102;2023-08-06T03:11:08;97082.19;;;14.84;100.00
13661;BME280;6903;49.480;11.102;2023-08-06T03:13:33;97076.06;;;14.84;100.00
13661;BME280;6903;49.480;11.102;2023-08-06T03:15:59;97071.75;;;14.83;100.00
13661;BME280;6903;49.480;11.102;2023-08-06T03:18:25;97073.56;;;14.82;100.00
13661;BME280;6903;49.480;11.102;2023-08-06T03:20:54;97073.22;;;14.85;100.00
13661;BME280;6903;49.480;11.102;2023-08-06T03:23:19;97079.53;;;14.84;100.00
13661;BME280;6903;49.480;11.102;2023-08-06T03:25:45;97070.56;;;14.85;100.00
13661;BME280;6903;49.480;11.102;2023-08-06T03:28:10;97066.94;;;14.86;100.00
13661;BME280;6903;49.480;11.102;2023-08-06T03:30:35;97056.50;;;14.85;100.00
13661;BME280;6903;49.480;11.102;2023-08-06T03:33:01;97059.97;;;14.85;100.00
13661;BME280;6903;49.480;11.102;2023-08-06T03:35:26;97055.66;;;14.84;100.00
13661;BME280;6903;49.480;11.102;2023-08-06T03:37:51;97055.66;;;14.84;100.00
13661;BME280;6903;49.480;11.102;2023-08-06T03:40:17;97046.41;;;-141.35;0.00
13661;BME280;6903;49.480;11.102;2023-08-06T03:42:42;97046.41;;;14.80;100.00
13661;BME280;6903;49.480;11.102;2023-08-06T03:45:08;97046.41;;;14.80;100.00
13661;BME280;6903;49.480;11.102;2023-08-06T03:47:34;97046.41;;;14.80;100.00
13661;BME280;6903;49.480;11.102;2023-08-06T03:49:59;58397.03;;;-141.35;100.00
13661;BME280;6903;49.480;11.102;2023-08-06T03:52:24;97046.41;;;-141.35;100.00
13661;BME280;6903;49.480;11.102;2023-08-06T03:54:50;58397.03;;;-141.35;100.00
13661;BME280;6903;49.480;11.102;2023-08-06T03:57:15;58397.03;;;-141.35;nan
13661;BME280;6903;49.480;11.102;2023-08-06T03:59:41;58397.03;;;-141.35;100.00
13661;BME280;6903;49.480;11.102;2023-08-06T04:02:06;97046.41;;;14.80;100.00
13661;BME280;6903;49.480;11.102;2023-08-06T04:04:31;73673.34;;;-141.35;100.00
13661;BME280;6903;49.480;11.102;2023-08-06T04:06:57;97046.41;;;14.80;100.00
13661;BME280;6903;49.480;11.102;2023-08-06T04:09:22;73673.34;;;-141.35;100.00
13661;BME280;6903;49.480;11.102;2023-08-06T04:11:47;97046.41;;;14.80;100.00
13661;BME280;6903;49.480;11.102;2023-08-06T04:14:12;97046.41;;;14.80;100.00
13661;BME280;6903;49.480;11.102;2023-08-06T04:16:38;97046.41;;;14.80;100.00
13661;BME280;6903;49.480;11.102;2023-08-06T04:19:03;97046.41;;;14.80;100.00
13661;BME280;6903;49.480;11.102;2023-08-06T04:21:28;97046.41;;;14.80;100.00
13661;BME280;6903;49.480;11.102;2023-08-06T04:23:54;97046.41;;;14.80;100.00
13661;BME280;6903;49.480;11.102;2023-08-06T04:26:19;77005.63;;;14.80;0.00
13661;BME280;6903;49.480;11.102;2023-08-06T04:28:44;97046.41;;;14.80;100.00
13661;BME280;6903;49.480;11.102;2023-08-06T04:31:10;97046.41;;;14.80;100.00
13661;BME280;6903;49.480;11.102;2023-08-06T04:33:35;97046.41;;;14.80;100.00
13661;BME280;6903;49.480;11.102;2023-08-06T04:36:00;97046.41;;;14.80;100.00
13661;BME280;6903;49.480;11.102;2023-08-06T04:38:26;97046.41;;;14.80;100.00
13661;BME280;6903;49.480;11.102;2023-08-06T04:40:52;58397.03;;;187.55;100.00
13661;BME280;6903;49.480;11.102;2023-08-06T04:43:17;58397.03;;;-141.35;100.00
13661;BME280;6903;49.480;11.102;2023-08-06T04:46:00;58397.03;;;-141.35;100.00
13661;BME280;6903;49.480;11.102;2023-08-06T04:48:25;58397.03;;;-141.35;100.00
13661;BME280;6903;49.480;11.102;2023-08-06T04:50:51;58397.03;;;-141.35;100.00
13661;BME280;6903;49.480;11.102;2023-08-06T04:53:16;58397.03;;;-141.35;100.00
13661;BME280;6903;49.480;11.102;2023-08-06T04:55:42;58397.03;;;-141.35;100.00
13661;BME280;6903;49.480;11.102;2023-08-06T04:58:10;58397.03;;;-141.35;100.00
13661;BME280;6903;49.480;11.102;2023-08-06T05:00:35;58397.03;;;-141.35;100.00
13661;BME280;6903;49.480;11.102;2023-08-06T05:03:01;58397.03;;;-141.35;100.00
13661;BME280;6903;49.480;11.102;2023-08-06T05:05:27;58397.03;;;-141.35;100.00
13661;BME280;6903;49.480;11.102;2023-08-06T05:07:55;58397.03;;;-141.35;100.00
13661;BME280;6903;49.480;11.102;2023-08-06T05:10:21;58397.03;;;-141.35;100.00
13661;BME280;6903;49.480;11.102;2023-08-06T05:12:46;58397.03;;;-141.35;100.00
13661;BME280;6903;49.480;11.102;2023-08-06T05:15:11;58397.03;;;-141.35;100.00
13661;BME280;6903;49.480;11.102;2023-08-06T05:17:37;58397.03;;;-141.35;100.00
13661;BME280;6903;49.480;11.102;2023-08-06T05:20:02;58397.03;;;-141.35;100.00
13661;BME280;6903;49.480;11.102;2023-08-06T05:22:28;58397.03;;;-141.35;100.00
13661;BME280;6903;49.480;11.102;2023-08-06T05:24:53;58397.03;;;-141.35;100.00
13661;BME280;6903;49.480;11.102;2023-08-06T05:27:19;58397.03;;;-141.35;100.00
13661;BME280;6903;49.480;11.102;2023-08-06T05:29:44;58397.03;;;-141.35;100.00
13661;BME280;6903;49.480;11.102;2023-08-06T05:32:10;58397.03;;;-141.35;100.00
13661;BME280;6903;49.480;11.102;2023-08-06T05:34:35;58397.03;;;-141.35;100.00
13661;BME280;6903;49.480;11.102;2023-08-06T05:37:00;58397.03;;;-141.35;100.00
13661;BME280;6903;49.480;11.102;2023-08-06T05:39:26;58397.03;;;-141.35;100.00
13661;BME280;6903;49.480;11.102;2023-08-06T05:41:51;58397.03;;;-141.35;100.00
13661;BME280;6903;49.480;11.102;2023-08-06T05:44:17;58397.03;;;-141.35;100.00
13661;BME280;6903;49.480;11.102;2023-08-06T05:46:43;58397.03;;;-141.35;100.00
13661;BME280;6903;49.480;11.102;2023-08-06T05:49:08;58397.03;;;-141.35;100.00
13661;BME280;6903;49.480;11.102;2023-08-06T05:51:33;58397.03;;;-141.35;100.00
13661;BME280;6903;49.480;11.102;2023-08-06T05:53:58;58397.03;;;-141.35;100.00
13661;BME280;6903;49.480;11.102;2023-08-06T05:56:24;58397.03;;;-141.35;100.00
13661;BME280;6903;49.480;11.102;2023-08-06T05:58:49;58397.03;;;-141.35;100.00
13661;BME280;6903;49.480;11.102;2023-08-06T06:01:18;58397.03;;;-141.35;100.00
13661;BME280;6903;49.480;11.102;2023-08-06T06:03:43;58397.03;;;-141.35;100.00
13661;BME280;6903;49.480;11.102;2023-08-06T06:06:08;58397.03;;;-141.35;100.00
13661;BME280;6903;49.480;11.102;2023-08-06T06:08:34;58397.03;;;-141.35;100.00
13661;BME280;6903;49.480;11.102;2023-08-06T06:10:59;58397.03;;;-141.35;100.00
13661;BME280;6903;49.480;11.102;2023-08-06T06:13:24;58397.03;;;-141.35;100.00
13661;BME280;6903;49.480;11.102;2023-08-06T06:15:50;58397.03;;;-141.35;100.00
13661;BME280;6903;49.480;11.102;2023-08-06T06:18:15;58397.03;;;-141.35;100.00
13661;BME280;6903;49.480;11.102;2023-08-06T06:20:40;58397.03;;;-141.35;100.00
13661;BME280;6903;49.480;11.102;2023-08-06T06:23:05;58397.03;;;-141.35;100.00
13661;BME280;6903;49.480;11.102;2023-08-06T06:25:31;58397.03;;;-141.35;100.00
13661;BME280;6903;49.480;11.102;2023-08-06T06:27:56;58397.03;;;-141.35;100.00
13661;BME280;6903;49.480;11.102;2023-08-06T06:30:21;58397.03;;;-141.35;100.00
13661;BME280;6903;49.480;11.102;2023-08-06T06:32:47;58397.03;;;-141.35;100.00
13661;BME280;6903;49.480;11.102;2023-08-06T06:35:12;58397.03;;;-141.35;100.00
13661;BME280;6903;49.480;11.102;2023-08-06T06:37:37;58397.03;;;-141.35;100.00
13661;BME280;6903;49.480;11.102;2023-08-06T06:40:03;58397.03;;;-141.35;100.00
13661;BME280;6903;49.480;11.102;2023-08-06T06:42:29;58397.03;;;-141.35;100.00
13661;BME280;6903;49.480;11.102;2023-08-06T06:44:54;58397.03;;;-141.35;100.00
13661;BME280;6903;49.480;11.102;2023-08-06T06:47:19;58397.03;;;-141.35;100.00
13661;BME280;6903;49.480;11.102;2023-08-06T06:49:45;58397.03;;;-141.35;100.00
13661;BME280;6903;49.480;11.102;2023-08-06T06:52:10;58397.03;;;-141.35;100.00
13661;BME280;6903;49.480;11.102;2023-08-06T06:54:36;58397.03;;;-141.35;100.00
13661;BME280;6903;49.480;11.102;2023-08-06T06:57:01;58397.03;;;-141.35;100.00
13661;BME280;6903;49.480;11.102;2023-08-06T06:59:27;58397.03;;;-141.35;100.00
13661;BME280;6903;49.480;11.102;2023-08-06T07:01:52;58397.03;;;-141.35;100.00
13661;BME280;6903;49.480;11.102;2023-08-06T07:04:17;58397.03;;;-141.35;100.00
13661;BME280;6903;49.480;11.102;2023-08-06T07:06:43;58397.03;;;-141.35;100.00
13661;BME280;6903;49.480;11.102;2023-08-06T07:09:08;58397.03;;;-141.35;100.00
13661;BME280;6903;49.480;11.102;2023-08-06T07:11:34;58397.03;;;-141.35;100.00
13661;BME280;6903;49.480;11.102;2023-08-06T07:13:59;58397.03;;;-141.35;100.00
13661;BME280;6903;49.480;11.102;2023-08-06T07:16:25;58397.03;;;-141.35;100.00
13661;BME280;6903;49.480;11.102;2023-08-06T07:18:51;58397.03;;;-141.35;100.00
13661;BME280;6903;49.480;11.102;2023-08-06T07:21:17;58397.03;;;-141.35;100.00
13661;BME280;6903;49.480;11.102;2023-08-06T07:23:43;58397.03;;;-141.35;100.00
13661;BME280;6903;49.480;11.102;2023-08-06T07:26:08;58397.03;;;-141.35;100.00
13661;BME280;6903;49.480;11.102;2023-08-06T07:28:34;58397.03;;;-141.35;100.00
13661;BME280;6903;49.480;11.102;2023-08-06T07:31:00;58397.03;;;-141.35;100.00
13661;BME280;6903;49.480;11.102;2023-08-06T07:33:25;58397.03;;;-141.35;100.00
13661;BME280;6903;49.480;11.102;2023-08-06T07:35:50;58397.03;;;-141.35;100.00
13661;BME280;6903;49.480;11.102;2023-08-06T07:38:16;58397.03;;;-141.35;100.00
13661;BME280;6903;49.480;11.102;2023-08-06T07:40:41;58397.03;;;-141.35;100.00
13661;BME280;6903;49.480;11.102;2023-08-06T07:43:06;58397.03;;;-141.35;100.00
13661;BME280;6903;49.480;11.102;2023-08-06T07:45:33;58397.03;;;-141.35;100.00
13661;BME280;6903;49.480;11.102;2023-08-06T07:47:59;58397.03;;;-141.35;100.00
13661;BME280;6903;49.480;11.102;2023-08-06T07:50:25;58397.03;;;-141.35;100.00
13661;BME280;6903;49.480;11.102;2023-08-06T07:52:50;58397.03;;;-141.35;100.00
13661;BME280;6903;49.480;11.102;2023-08-06T07:55:15;58397.03;;;-141.35;100.00
13661;BME280;6903;49.480;11.102;2023-08-06T07:57:41;58397.03;;;-141.35;100.00
13661;BME280;6903;49.480;11.102;2023-08-06T08:00:06;58397.03;;;-141.35;100.00
13661;BME280;6903;49.480;11.102;2023-08-06T08:02:32;58397.03;;;-141.35;100.00
13661;BME280;6903;49.480;11.102;2023-08-06T08:04:57;58397.03;;;-141.35;100.00
13661;BME280;6903;49.480;11.102;2023-08-06T08:07:22;58397.03;;;-141.35;100.00
13661;BME280;6903;49.480;11.102;2023-08-06T08:09:48;58397.03;;;-141.35;100.00
13661;BME280;6903;49.480;11.102;2023-08-06T08:12:13;58397.03;;;-141.35;100.00
13661;BME280;6903;49.480;11.102;2023-08-06T08:14:39;58397.03;;;-141.35;100.00
13661;BME280;6903;49.480;11.102;2023-08-06T08:17:04;58397.03;;;-141.35;100.00
13661;BME280;6903;49.480;11.102;2023-08-06T08:19:31;58397.03;;;-141.35;100.00
13661;BME280;6903;49.480;11.102;2023-08-06T08:21:56;58397.03;;;-141.35;100.00
13661;BME280;6903;49.480;11.102;2023-08-06T08:24:22;58397.03;;;-141.35;100.00
13661;BME280;6903;49.480;11.102;2023-08-06T08:26:51;58397.03;;;-141.35;100.00
13661;BME280;6903;49.480;11.102;2023-08-06T08:29:16;58397.03;;;-141.35;100.00
13661;BME280;6903;49.480;11.102;2023-08-06T08:31:42;58397.03;;;-141.35;100.00
13661;BME280;6903;49.480;11.102;2023-08-06T08:34:08;58397.03;;;-141.35;100.00
13661;BME280;6903;49.480;11.102;2023-08-06T08:36:34;58397.03;;;-141.35;100.00
13661;BME280;6903;49.480;11.102;2023-08-06T08:38:59;58397.03;;;-141.35;100.00
13661;BME280;6903;49.480;11.102;2023-08-06T08:41:25;58397.03;;;-141.35;100.00
13661;BME280;6903;49.480;11.102;2023-08-06T08:43:53;58397.03;;;-141.35;100.00
13661;BME280;6903;49.480;11.102;2023-08-06T08:46:19;58397.03;;;-141.35;100.00
13661;BME280;6903;49.480;11.102;2023-08-06T08:48:45;58397.03;;;-141.35;100.00
13661;BME280;6903;49.480;11.102;2023-08-06T08:51:12;58397.03;;;-141.35;100.00
13661;BME280;6903;49.480;11.102;2023-08-06T08:53:38;58397.03;;;-141.35;100.00
13661;BME280;6903;49.480;11.102;2023-08-06T08:56:05;58397.03;;;-141.35;100.00
13661;BME280;6903;49.480;11.102;2023-08-06T08:58:30;58397.03;;;-141.35;100.00
13661;BME280;6903;49.480;11.102;2023-08-06T09:00:55;58397.03;;;-141.35;100.00
13661;BME280;6903;49.480;11.102;2023-08-06T09:03:21;58397.03;;;-141.35;100.00
13661;BME280;6903;49.480;11.102;2023-08-06T09:05:49;58397.03;;;-141.35;100.00
13661;BME280;6903;49.480;11.102;2023-08-06T09:08:18;58397.03;;;-141.35;100.00
13661;BME280;6903;49.480;11.102;2023-08-06T09:10:48;58397.03;;;-141.35;100.00
13661;BME280;6903;49.480;11.102;2023-08-06T09:13:13;58397.03;;;-141.35;100.00
13661;BME280;6903;49.480;11.102;2023-08-06T09:15:39;58397.03;;;-141.35;100.00
13661;BME280;6903;49.480;11.102;2023-08-06T09:18:11;58397.03;;;-141.35;100.00
13661;BME280;6903;49.480;11.102;2023-08-06T09:20:38;58397.03;;;-141.35;100.00
13661;BME280;6903;49.480;11.102;2023-08-06T09:23:10;58397.03;;;-141.35;100.00
13661;BME280;6903;49.480;11.102;2023-08-06T09:25:39;58397.03;;;-141.35;100.00
13661;BME280;6903;49.480;11.102;2023-08-06T09:28:07;58397.03;;;-141.35;100.00
13661;BME280;6903;49.480;11.102;2023-08-06T09:30:36;58397.03;;;-141.35;100.00
13661;BME280;6903;49.480;11.102;2023-08-06T09:33:02;58397.03;;;-141.35;100.00
13661;BME280;6903;49.480;11.102;2023-08-06T09:35:28;58397.03;;;-141.35;100.00
13661;BME280;6903;49.480;11.102;2023-08-06T09:37:54;58397.03;;;-141.35;100.00
13661;BME280;6903;49.480;11.102;2023-08-06T09:40:31;58397.03;;;-141.35;100.00
13661;BME280;6903;49.480;11.102;2023-08-06T09:42:57;58397.03;;;-141.35;100.00
13661;BME280;6903;49.480;11.102;2023-08-06T09:45:24;58397.03;;;-141.35;100.00
13661;BME280;6903;49.480;11.102;2023-08-06T09:47:56;58397.03;;;-141.35;100.00
13661;BME280;6903;49.480;11.102;2023-08-06T09:50:22;58397.03;;;-141.35;100.00
13661;BME280;6903;49.480;11.102;2023-08-06T09:52:48;58397.03;;;-141.35;100.00
13661;BME280;6903;49.480;11.102;2023-08-06T09:55:15;58397.03;;;-141.35;100.00
13661;BME280;6903;49.480;11.102;2023-08-06T09:57:41;58397.03;;;-141.35;100.00
13661;BME280;6903;49.480;11.102;2023-08-06T10:00:08;58397.03;;;-141.35;100.00
13661;BME280;6903;49.480;11.102;2023-08-06T10:02:37;58397.03;;;-141.35;100.00
13661;BME280;6903;49.480;11.102;2023-08-06T10:05:03;58397.03;;;-141.35;100.00
13661;BME280;6903;49.480;11.102;2023-08-06T10:07:30;58397.03;;;-141.35;100.00
13661;BME280;6903;49.480;11.102;2023-08-06T10:09:55;58397.03;;;-141.35;100.00
13661;BME280;6903;49.480;11.102;2023-08-06T10:12:21;58397.03;;;-141.35;100.00
13661;BME280;6903;49.480;11.102;2023-08-06T10:14:49;58397.03;;;-141.35;100.00
13661;BME280;6903;49.480;11.102;2023-08-06T10:17:16;58397.03;;;-141.35;100.00
13661;BME280;6903;49.480;11.102;2023-08-06T10:19:42;58397.03;;;-141.35;100.00
13661;BME280;6903;49.480;11.102;2023-08-06T10:22:14;58397.03;;;-141.35;100.00
13661;BME280;6903;49.480;11.102;2023-08-06T10:24:51;58397.03;;;-141.35;100.00
13661;BME280;6903;49.480;11.102;2023-08-06T10:27:21;58397.03;;;-141.35;100.00
13661;BME280;6903;49.480;11.102;2023-08-06T10:29:47;58397.03;;;-141.35;100.00
13661;BME280;6903;49.480;11.102;2023-08-06T10:32:14;58397.03;;;-141.35;100.00
13661;BME280;6903;49.480;11.102;2023-08-06T10:34:55;58397.03;;;-141.35;100.00
13661;BME280;6903;49.480;11.102;2023-08-06T10:37:21;58397.03;;;-141.35;100.00
13661;BME280;6903;49.480;11.102;2023-08-06T10:39:50;58397.03;;;-141.35;100.00
13661;BME280;6903;49.480;11.102;2023-08-06T10:42:20;58397.03;;;-141.35;100.00
13661;BME280;6903;49.480;11.102;2023-08-06T10:45:16;58397.03;;;-141.35;100.00
13661;BME280;6903;49.480;11.102;2023-08-06T10:47:42;58397.03;;;-141.35;100.00
13661;BME280;6903;49.480;11.102;2023-08-06T10:50:11;58397.03;;;-141.35;100.00
13661;BME280;6903;49.480;11.102;2023-08-06T10:52:37;58397.03;;;-141.35;100.00
13661;BME280;6903;49.480;11.102;2023-08-06T10:55:03;58397.03;;;-141.35;100.00
13661;BME280;6903;49.480;11.102;2023-08-06T10:57:28;58397.03;;;-141.35;100.00
13661;BME280;6903;49.480;11.102;2023-08-06T10:59:53;58397.03;;;-141.35;100.00
13661;BME280;6903;49.480;11.102;2023-08-06T11:02:19;58397.03;;;-141.35;100.00
13661;BME280;6903;49.480;11.102;2023-08-06T11:04:44;58397.03;;;-141.35;100.00
13661;BME280;6903;49.480;11.102;2023-08-06T11:07:10;58397.03;;;-141.35;100.00
13661;BME280;6903;49.480;11.102;2023-08-06T11:09:35;58397.03;;;-141.35;100.00
13661;BME280;6903;49.480;11.102;2023-08-06T11:12:00;58397.03;;;-141.35;100.00
13661;BME280;6903;49.480;11.102;2023-08-06T11:14:25;58397.03;;;-141.35;100.00
13661;BME280;6903;49.480;11.102;2023-08-06T11:16:51;58397.03;;;-141.35;100.00
13661;BME280;6903;49.480;11.102;2023-08-06T11:19:16;58397.03;;;-141.35;100.00
13661;BME280;6903;49.480;11.102;2023-08-06T11:21:43;58397.03;;;-141.35;100.00
13661;BME280;6903;49.480;11.102;2023-08-06T11:24:12;58397.03;;;-141.35;100.00
13661;BME280;6903;49.480;11.102;2023-08-06T11:26:37;58397.03;;;-141.35;100.00
13661;BME280;6903;49.480;11.102;2023-08-06T11:29:05;58397.03;;;-141.35;100.00
13661;BME280;6903;49.480;11.102;2023-08-06T11:31:30;58397.03;;;-141.35;100.00
13661;BME280;6903;49.480;11.102;2023-08-06T11:33:55;58397.03;;;-141.35;100.00
13661;BME280;6903;49.480;11.102;2023-08-06T11:36:31;58397.03;;;-141.35;100.00
13661;BME280;6903;49.480;11.102;2023-08-06T11:38:58;58397.03;;;-141.35;100.00
13661;BME280;6903;49.480;11.102;2023-08-06T11:41:23;58397.03;;;-141.35;100.00
13661;BME280;6903;49.480;11.102;2023-08-06T11:43:49;58397.03;;;-141.35;100.00
13661;BME280;6903;49.480;11.102;2023-08-06T11:46:14;58397.03;;;-141.35;100.00
13661;BME280;6903;49.480;11.102;2023-08-06T11:48:56;58397.03;;;-141.35;100.00
13661;BME280;6903;49.480;11.102;2023-08-06T11:51:27;58397.03;;;-141.35;100.00
13661;BME280;6903;49.480;11.102;2023-08-06T11:53:57;58397.03;;;-141.35;100.00
13661;BME280;6903;49.480;11.102;2023-08-06T11:56:26;58397.03;;;-141.35;100.00
13661;BME280;6903;49.480;11.102;2023-08-06T11:58:52;58397.03;;;-141.35;100.00
13661;BME280;6903;49.480;11.102;2023-08-06T12:01:18;58397.03;;;-141.35;100.00
13661;BME280;6903;49.480;11.102;2023-08-06T12:03:43;58397.03;;;-141.35;100.00
13661;BME280;6903;49.480;11.102;2023-08-06T12:06:08;58397.03;;;-141.35;100.00
13661;BME280;6903;49.480;11.102;2023-08-06T12:08:34;58397.03;;;-141.35;100.00
13661;BME280;6903;49.480;11.102;2023-08-06T12:10:59;58397.03;;;-141.35;100.00
13661;BME280;6903;49.480;11.102;2023-08-06T12:13:25;58397.03;;;-141.35;100.00
13661;BME280;6903;49.480;11.102;2023-08-06T12:15:50;58397.03;;;-141.35;100.00
13661;BME280;6903;49.480;11.102;2023-08-06T12:18:18;58397.03;;;-141.35;100.00
13661;BME280;6903;49.480;11.102;2023-08-06T12:20:43;58397.03;;;-141.35;100.00
13661;BME280;6903;49.480;11.102;2023-08-06T12:23:08;58397.03;;;-141.35;100.00
13661;BME280;6903;49.480;11.102;2023-08-06T12:25:35;58397.03;;;-141.35;100.00
13661;BME280;6903;49.480;11.102;2023-08-06T12:28:00;58397.03;;;-141.35;100.00
13661;BME280;6903;49.480;11.102;2023-08-06T12:30:25;58397.03;;;-141.35;100.00
13661;BME280;6903;49.480;11.102;2023-08-06T12:32:51;58397.03;;;-141.35;100.00
13661;BME280;6903;49.480;11.102;2023-08-06T12:35:17;58397.03;;;-141.35;100.00